sensor_id;sensor_type;location;lat;lon;timestamp;P1;durP1;ratioP1;P2;durP2;ratioP2
23280;SDS011;11809;56.390;-3.266;2024-03-29T00:00:36;2.40;;;0.80;;
23280;SDS011;11809;56.390;-3.266;2024-03-29T00:03:03;2.58;;;1.00;;
23280;SDS011;11809;56.390;-3.266;2024-03-29T00:05:31;3.17;;;0.80;;
23280;SDS011;11809;56.390;-3.266;2024-03-29T00:08:02;3.63;;;0.90;;
23280;SDS011;11809;56.390;-3.266;2024-03-29T00:10:30;3.45;;;0.80;;
23280;SDS011;11809;56.390;-3.266;2024-03-29T00:12:57;4.50;;;1.25;;
23280;SDS011;11809;56.390;-3.266;2024-03-29T00:15:24;5.50;;;1.05;;
23280;SDS011;11809;56.390;-3.266;2024-03-29T00:17:50;5.25;;;1.25;;
23280;SDS011;11809;56.390;-3.266;2024-03-29T00:20:17;6.35;;;1.13;;
23280;SDS011;11809;56.390;-3.266;2024-03-29T00:22:43;5.22;;;1.20;;
23280;SDS011;11809;56.390;-3.266;2024-03-29T00:25:12;3.80;;;1.02;;
23280;SDS011;11809;56.390;-3.266;2024-03-29T00:27:39;4.25;;;1.15;;
23280;SDS011;11809;56.390;-3.266;2024-03-29T00:30:06;4.28;;;1.05;;
23280;SDS011;11809;56.390;-3.266;2024-03-29T00:32:33;3.67;;;0.90;;
23280;SDS011;11809;56.390;-3.266;2024-03-29T00:34:59;5.00;;;1.30;;
23280;SDS011;11809;56.390;-3.266;2024-03-29T00:37:26;4.03;;;1.10;;
23280;SDS011;11809;56.390;-3.266;2024-03-29T00:39:52;2.50;;;1.10;;
23280;SDS011;11809;56.390;-3.266;2024-03-29T00:42:22;2.33;;;0.90;;
23280;SDS011;11809;56.390;-3.266;2024-03-29T00:44:51;3.08;;;0.82;;
23280;SDS011;11809;56.390;-3.266;2024-03-29T00:47:17;3.67;;;0.90;;
23280;SDS011;11809;56.390;-3.266;2024-03-29T00:49:44;5.78;;;1.20;;
23280;SDS011;11809;56.390;-3.266;2024-03-29T00:52:11;2.22;;;0.90;;
23280;SDS011;11809;56.390;-3.266;2024-03-29T00:54:39;2.60;;;1.27;;
23280;SDS011;11809;56.390;-3.266;2024-03-29T00:57:06;3.97;;;1.00;;
23280;SDS011;11809;56.390;-3.266;2024-03-29T00:59:37;2.65;;;0.90;;
23280;SDS011;11809;56.390;-3.266;2024-03-29T01:02:04;3.58;;;0.80;;
23280;SDS011;11809;56.390;-3.266;2024-03-29T01:04:31;3.28;;;1.20;;
23280;SDS011;11809;56.390;-3.266;2024-03-29T01:06:57;2.60;;;0.88;;
23280;SDS011;11809;56.390;-3.266;2024-03-29T01:09:27;2.47;;;0.90;;
23280;SDS011;11809;56.390;-3.266;2024-03-29T01:11:55;3.90;;;0.90;;
23280;SDS011;11809;56.390;-3.266;2024-03-29T01:14:21;2.67;;;0.73;;
23280;SDS011;11809;56.390;-3.266;2024-03-29T01:16:51;3.42;;;1.25;;
23280;SDS011;11809;56.390;-3.266;2024-03-29T01:19:17;4.38;;;1.17;;
23280;SDS011;11809;56.390;-3.266;2024-03-29T01:21:44;3.28;;;0.93;;
23280;SDS011;11809;56.390;-3.266;2024-03-29T01:24:11;6.57;;;0.95;;
23280;SDS011;11809;56.390;-3.266;2024-03-29T01:26:37;4.38;;;1.00;;
23280;SDS011;11809;56.390;-3.266;2024-03-29T01:29:03;2.42;;;1.00;;
23280;SDS011;11809;56.390;-3.266;2024-03-29T01:31:30;4.07;;;1.17;;
23280;SDS011;11809;56.390;-3.266;2024-03-29T01:34:02;2.03;;;0.90;;
23280;SDS011;11809;56.390;-3.266;2024-03-29T01:36:30;3.13;;;1.27;;
23280;SDS011;11809;56.390;-3.266;2024-03-29T01:38:56;4.28;;;1.20;;
23280;SDS011;11809;56.390;-3.266;2024-03-29T01:41:23;3.20;;;0.93;;
23280;SDS011;11809;56.390;-3.266;2024-03-29T01:43:50;3.10;;;0.90;;
23280;SDS011;11809;56.390;-3.266;2024-03-29T01:46:16;3.67;;;1.00;;
23280;SDS011;11809;56.390;-3.266;2024-03-29T01:48:45;3.42;;;0.80;;
23280;SDS011;11809;56.390;-3.266;2024-03-29T01:51:14;2.90;;;0.93;;
23280;SDS011;11809;56.390;-3.266;2024-03-29T01:53:42;2.13;;;0.73;;
23280;SDS011;11809;56.390;-3.266;2024-03-29T01:56:10;3.55;;;0.90;;
23280;SDS011;11809;56.390;-3.266;2024-03-29T01:58:37;3.20;;;0.75;;
23280;SDS011;11809;56.390;-3.266;2024-03-29T02:01:04;3.00;;;0.93;;
23280;SDS011;11809;56.390;-3.266;2024-03-29T02:03:33;3.50;;;1.13;;
23280;SDS011;11809;56.390;-3.266;2024-03-29T02:05:59;2.60;;;1.00;;
23280;SDS011;11809;56.390;-3.266;2024-03-29T02:08:29;4.38;;;1.00;;
23280;SDS011;11809;56.390;-3.266;2024-03-29T02:10:55;3.47;;;0.93;;
23280;SDS011;11809;56.390;-3.266;2024-03-29T02:13:22;1.48;;;0.73;;
23280;SDS011;11809;56.390;-3.266;2024-03-29T02:15:49;5.25;;;0.90;;
23280;SDS011;11809;56.390;-3.266;2024-03-29T02:18:15;3.55;;;1.10;;
23280;SDS011;11809;56.390;-3.266;2024-03-29T02:20:42;2.25;;;0.75;;
23280;SDS011;11809;56.390;-3.266;2024-03-29T02:23:10;1.75;;;0.80;;
23280;SDS011;11809;56.390;-3.266;2024-03-29T02:25:42;5.53;;;1.33;;
23280;SDS011;11809;56.390;-3.266;2024-03-29T02:28:08;2.50;;;0.70;;
23280;SDS011;11809;56.390;-3.266;2024-03-29T02:30:34;3.70;;;1.08;;
23280;SDS011;11809;56.390;-3.266;2024-03-29T02:33:01;3.35;;;0.70;;
23280;SDS011;11809;56.390;-3.266;2024-03-29T02:35:28;4.15;;;0.80;;
23280;SDS011;11809;56.390;-3.266;2024-03-29T02:37:55;5.13;;;0.85;;
23280;SDS011;11809;56.390;-3.266;2024-03-29T02:40:21;2.17;;;0.80;;
23280;SDS011;11809;56.390;-3.266;2024-03-29T02:42:50;2.22;;;1.00;;
23280;SDS011;11809;56.390;-3.266;2024-03-29T02:45:17;2.67;;;0.73;;
23280;SDS011;11809;56.390;-3.266;2024-03-29T02:47:43;1.55;;;0.82;;
23280;SDS011;11809;56.390;-3.266;2024-03-29T02:50:10;3.45;;;1.00;;
23280;SDS011;11809;56.390;-3.266;2024-03-29T02:52:39;2.67;;;0.68;;
23280;SDS011;11809;56.390;-3.266;2024-03-29T02:55:05;2.53;;;0.65;;
23280;SDS011;11809;56.390;-3.266;2024-03-29T02:57:32;1.33;;;0.63;;
23280;SDS011;11809;56.390;-3.266;2024-03-29T03:00:01;1.10;;;0.60;;
23280;SDS011;11809;56.390;-3.266;2024-03-29T03:02:28;1.83;;;0.60;;
23280;SDS011;11809;56.390;-3.266;2024-03-29T03:04:54;1.92;;;0.70;;
23280;SDS011;11809;56.390;-3.266;2024-03-29T03:07:20;2.22;;;0.85;;
23280;SDS011;11809;56.390;-3.266;2024-03-29T03:12:43;1.90;;;0.80;;
23280;SDS011;11809;56.390;-3.266;2024-03-29T03:15:12;1.98;;;0.90;;
23280;SDS011;11809;56.390;-3.266;2024-03-29T03:17:38;1.88;;;0.75;;
23280;SDS011;11809;56.390;-3.266;2024-03-29T03:20:05;3.47;;;0.70;;
23280;SDS011;11809;56.390;-3.266;2024-03-29T03:22:33;4.78;;;0.80;;
23280;SDS011;11809;56.390;-3.266;2024-03-29T03:24:59;1.70;;;0.70;;
23280;SDS011;11809;56.390;-3.266;2024-03-29T03:27:26;3.55;;;0.73;;
23280;SDS011;11809;56.390;-3.266;2024-03-29T03:29:52;1.98;;;0.80;;
23280;SDS011;11809;56.390;-3.266;2024-03-29T03:32:22;1.67;;;0.63;;
23280;SDS011;11809;56.390;-3.266;2024-03-29T03:34:49;2.53;;;0.80;;
23280;SDS011;11809;56.390;-3.266;2024-03-29T03:37:15;1.05;;;0.60;;
23280;SDS011;11809;56.390;-3.266;2024-03-29T03:39:42;2.60;;;0.75;;
23280;SDS011;11809;56.390;-3.266;2024-03-29T03:42:08;2.05;;;1.00;;
23280;SDS011;11809;56.390;-3.266;2024-03-29T03:44:35;3.92;;;0.68;;
23280;SDS011;11809;56.390;-3.266;2024-03-29T03:47:01;3.50;;;0.90;;
23280;SDS011;11809;56.390;-3.266;2024-03-29T03:49:30;3.03;;;0.60;;
23280;SDS011;11809;56.390;-3.266;2024-03-29T03:51:56;1.73;;;0.68;;
23280;SDS011;11809;56.390;-3.266;2024-03-29T03:54:23;1.73;;;0.70;;
23280;SDS011;11809;56.390;-3.266;2024-03-29T03:56:49;1.98;;;0.82;;
23280;SDS011;11809;56.390;-3.266;2024-03-29T03:59:16;2.03;;;0.80;;
23280;SDS011;11809;56.390;-3.266;2024-03-29T04:01:42;1.88;;;0.63;;
23280;SDS011;11809;56.390;-3.266;2024-03-29T04:04:08;0.95;;;0.70;;
23280;SDS011;11809;56.390;-3.266;2024-03-29T04:06:37;2.80;;;0.70;;
23280;SDS011;11809;56.390;-3.266;2024-03-29T04:09:04;2.35;;;0.80;;
23280;SDS011;11809;56.390;-3.266;2024-03-29T04:11:30;2.28;;;0.70;;
23280;SDS011;11809;56.390;-3.266;2024-03-29T04:13:56;1.98;;;0.70;;
23280;SDS011;11809;56.390;-3.266;2024-03-29T04:16:23;1.25;;;0.60;;
23280;SDS011;11809;56.390;-3.266;2024-03-29T04:18:49;1.65;;;0.80;;
23280;SDS011;11809;56.390;-3.266;2024-03-29T04:21:15;1.67;;;0.65;;
23280;SDS011;11809;56.390;-3.266;2024-03-29T04:23:44;1.25;;;0.70;;
23280;SDS011;11809;56.390;-3.266;2024-03-29T04:26:10;1.92;;;0.82;;
23280;SDS011;11809;56.390;-3.266;2024-03-29T04:28:37;2.05;;;0.60;;
23280;SDS011;11809;56.390;-3.266;2024-03-29T04:31:03;1.38;;;0.65;;
23280;SDS011;11809;56.390;-3.266;2024-03-29T04:33:30;1.30;;;0.70;;
23280;SDS011;11809;56.390;-3.266;2024-03-29T04:35:57;1.95;;;0.60;;
23280;SDS011;11809;56.390;-3.266;2024-03-29T04:38:24;1.40;;;0.80;;
23280;SDS011;11809;56.390;-3.266;2024-03-29T04:40:53;1.63;;;0.50;;
23280;SDS011;11809;56.390;-3.266;2024-03-29T04:43:21;1.48;;;0.60;;
23280;SDS011;11809;56.390;-3.266;2024-03-29T04:45:48;3.22;;;0.60;;
23280;SDS011;11809;56.390;-3.266;2024-03-29T04:48:15;1.23;;;0.70;;
23280;SDS011;11809;56.390;-3.266;2024-03-29T04:50:41;1.92;;;0.60;;
23280;SDS011;11809;56.390;-3.266;2024-03-29T04:53:07;1.83;;;0.80;;
23280;SDS011;11809;56.390;-3.266;2024-03-29T04:55:34;1.70;;;0.70;;
23280;SDS011;11809;56.390;-3.266;2024-03-29T04:58:03;1.20;;;0.68;;
23280;SDS011;11809;56.390;-3.266;2024-03-29T05:00:30;1.88;;;0.70;;
23280;SDS011;11809;56.390;-3.266;2024-03-29T05:02:56;0.70;;;0.43;;
23280;SDS011;11809;56.390;-3.266;2024-03-29T05:05:22;2.15;;;0.75;;
23280;SDS011;11809;56.390;-3.266;2024-03-29T05:07:49;1.30;;;0.80;;
23280;SDS011;11809;56.390;-3.266;2024-03-29T05:10:15;0.88;;;0.60;;
23280;SDS011;11809;56.390;-3.266;2024-03-29T05:12:42;0.63;;;0.50;;
23280;SDS011;11809;56.390;-3.266;2024-03-29T05:15:11;1.60;;;0.60;;
23280;SDS011;11809;56.390;-3.266;2024-03-29T05:17:37;1.45;;;0.65;;
23280;SDS011;11809;56.390;-3.266;2024-03-29T05:20:03;0.65;;;0.50;;
23280;SDS011;11809;56.390;-3.266;2024-03-29T05:22:31;1.80;;;0.60;;
23280;SDS011;11809;56.390;-3.266;2024-03-29T05:24:57;2.03;;;0.70;;
23280;SDS011;11809;56.390;-3.266;2024-03-29T05:27:23;3.35;;;0.70;;
23280;SDS011;11809;56.390;-3.266;2024-03-29T05:29:51;1.45;;;0.50;;
23280;SDS011;11809;56.390;-3.266;2024-03-29T05:32:20;2.15;;;0.98;;
23280;SDS011;11809;56.390;-3.266;2024-03-29T05:34:46;11.30;;;0.90;;
23280;SDS011;11809;56.390;-3.266;2024-03-29T05:37:13;2.47;;;0.65;;
23280;SDS011;11809;56.390;-3.266;2024-03-29T05:39:39;11.00;;;1.00;;
23280;SDS011;11809;56.390;-3.266;2024-03-29T05:42:06;15.50;;;1.00;;
23280;SDS011;11809;56.390;-3.266;2024-03-29T05:44:32;6.15;;;1.63;;
23280;SDS011;11809;56.390;-3.266;2024-03-29T05:47:00;16.92;;;1.52;;
23280;SDS011;11809;56.390;-3.266;2024-03-29T05:49:29;12.55;;;1.40;;
23280;SDS011;11809;56.390;-3.266;2024-03-29T05:51:55;19.70;;;1.58;;
23280;SDS011;11809;56.390;-3.266;2024-03-29T05:54:22;30.25;;;1.83;;
23280;SDS011;11809;56.390;-3.266;2024-03-29T05:56:48;31.13;;;2.08;;
23280;SDS011;11809;56.390;-3.266;2024-03-29T05:59:15;18.98;;;1.52;;
23280;SDS011;11809;56.390;-3.266;2024-03-29T06:01:41;6.45;;;1.48;;
23280;SDS011;11809;56.390;-3.266;2024-03-29T06:04:07;67.63;;;4.40;;
23280;SDS011;11809;56.390;-3.266;2024-03-29T06:06:37;17.38;;;1.50;;
23280;SDS011;11809;56.390;-3.266;2024-03-29T06:09:03;20.35;;;1.50;;
23280;SDS011;11809;56.390;-3.266;2024-03-29T06:11:30;26.45;;;1.60;;
23280;SDS011;11809;56.390;-3.266;2024-03-29T06:13:56;19.13;;;1.52;;
23280;SDS011;11809;56.390;-3.266;2024-03-29T06:16:38;12.68;;;1.83;;
23280;SDS011;11809;56.390;-3.266;2024-03-29T06:21:48;21.48;;;2.35;;
23280;SDS011;11809;56.390;-3.266;2024-03-29T06:24:14;9.88;;;1.63;;
23280;SDS011;11809;56.390;-3.266;2024-03-29T06:26:40;8.57;;;1.00;;
23280;SDS011;11809;56.390;-3.266;2024-03-29T06:29:07;9.23;;;1.20;;
23280;SDS011;11809;56.390;-3.266;2024-03-29T06:31:34;4.35;;;0.93;;
23280;SDS011;11809;56.390;-3.266;2024-03-29T06:34:01;17.75;;;1.73;;
23280;SDS011;11809;56.390;-3.266;2024-03-29T06:36:27;15.38;;;1.70;;
23280;SDS011;11809;56.390;-3.266;2024-03-29T06:38:57;11.90;;;2.00;;
23280;SDS011;11809;56.390;-3.266;2024-03-29T06:41:23;11.07;;;1.90;;
23280;SDS011;11809;56.390;-3.266;2024-03-29T06:43:49;5.82;;;1.38;;
23280;SDS011;11809;56.390;-3.266;2024-03-29T06:46:16;7.70;;;1.35;;
23280;SDS011;11809;56.390;-3.266;2024-03-29T06:48:42;8.40;;;1.35;;
23280;SDS011;11809;56.390;-3.266;2024-03-29T06:51:09;9.30;;;1.48;;
23280;SDS011;11809;56.390;-3.266;2024-03-29T06:53:36;14.45;;;1.95;;
23280;SDS011;11809;56.390;-3.266;2024-03-29T06:56:06;8.48;;;1.20;;
23280;SDS011;11809;56.390;-3.266;2024-03-29T06:58:33;9.27;;;0.93;;
23280;SDS011;11809;56.390;-3.266;2024-03-29T07:00:59;4.97;;;0.85;;
23280;SDS011;11809;56.390;-3.266;2024-03-29T07:03:26;5.07;;;1.08;;
23280;SDS011;11809;56.390;-3.266;2024-03-29T07:05:52;3.95;;;0.77;;
23280;SDS011;11809;56.390;-3.266;2024-03-29T07:08:18;6.07;;;1.00;;
23280;SDS011;11809;56.390;-3.266;2024-03-29T07:10:45;8.23;;;1.00;;
23280;SDS011;11809;56.390;-3.266;2024-03-29T07:13:14;1.42;;;0.70;;
23280;SDS011;11809;56.390;-3.266;2024-03-29T07:15:40;15.35;;;2.17;;
23280;SDS011;11809;56.390;-3.266;2024-03-29T07:18:06;9.05;;;1.02;;
23280;SDS011;11809;56.390;-3.266;2024-03-29T07:20:33;7.57;;;0.95;;
23280;SDS011;11809;56.390;-3.266;2024-03-29T07:23:01;5.43;;;0.70;;
23280;SDS011;11809;56.390;-3.266;2024-03-29T07:25:28;8.35;;;1.02;;
23280;SDS011;11809;56.390;-3.266;2024-03-29T07:27:55;10.88;;;0.90;;
23280;SDS011;11809;56.390;-3.266;2024-03-29T07:30:24;21.45;;;1.65;;
23280;SDS011;11809;56.390;-3.266;2024-03-29T07:32:51;21.48;;;1.85;;
23280;SDS011;11809;56.390;-3.266;2024-03-29T07:35:17;10.90;;;1.20;;
23280;SDS011;11809;56.390;-3.266;2024-03-29T07:37:44;13.55;;;1.23;;
23280;SDS011;11809;56.390;-3.266;2024-03-29T07:40:11;26.52;;;2.67;;
23280;SDS011;11809;56.390;-3.266;2024-03-29T07:42:38;13.15;;;1.80;;
23280;SDS011;11809;56.390;-3.266;2024-03-29T07:45:04;21.60;;;1.88;;
23280;SDS011;11809;56.390;-3.266;2024-03-29T07:47:34;28.85;;;1.85;;
23280;SDS011;11809;56.390;-3.266;2024-03-29T07:50:00;7.05;;;1.40;;
23280;SDS011;11809;56.390;-3.266;2024-03-29T07:52:26;15.85;;;1.17;;
23280;SDS011;11809;56.390;-3.266;2024-03-29T07:54:53;13.55;;;1.73;;
23280;SDS011;11809;56.390;-3.266;2024-03-29T07:57:19;19.48;;;1.75;;
23280;SDS011;11809;56.390;-3.266;2024-03-29T07:59:46;13.80;;;1.50;;
23280;SDS011;11809;56.390;-3.266;2024-03-29T08:02:12;11.00;;;1.27;;
23280;SDS011;11809;56.390;-3.266;2024-03-29T08:04:41;11.27;;;1.10;;
23280;SDS011;11809;56.390;-3.266;2024-03-29T08:07:08;9.43;;;1.13;;
23280;SDS011;11809;56.390;-3.266;2024-03-29T08:09:35;14.05;;;1.20;;
23280;SDS011;11809;56.390;-3.266;2024-03-29T08:12:01;3.20;;;0.98;;
23280;SDS011;11809;56.390;-3.266;2024-03-29T08:14:28;15.23;;;1.52;;
23280;SDS011;11809;56.390;-3.266;2024-03-29T08:16:54;4.88;;;0.95;;
23280;SDS011;11809;56.390;-3.266;2024-03-29T08:19:20;4.90;;;1.40;;
23280;SDS011;11809;56.390;-3.266;2024-03-29T08:21:50;12.35;;;1.00;;
23280;SDS011;11809;56.390;-3.266;2024-03-29T08:26:46;4.00;;;0.90;;
23280;SDS011;11809;56.390;-3.266;2024-03-29T08:29:13;3.17;;;0.70;;
23280;SDS011;11809;56.390;-3.266;2024-03-29T08:31:39;4.53;;;0.80;;
23280;SDS011;11809;56.390;-3.266;2024-03-29T08:34:09;3.22;;;0.95;;
23280;SDS011;11809;56.390;-3.266;2024-03-29T08:36:39;3.92;;;0.82;;
23280;SDS011;11809;56.390;-3.266;2024-03-29T08:39:08;2.47;;;0.60;;
23280;SDS011;11809;56.390;-3.266;2024-03-29T08:41:34;2.90;;;0.70;;
23280;SDS011;11809;56.390;-3.266;2024-03-29T08:44:01;3.83;;;0.88;;
23280;SDS011;11809;56.390;-3.266;2024-03-29T08:46:27;2.30;;;0.70;;
23280;SDS011;11809;56.390;-3.266;2024-03-29T08:48:54;2.03;;;0.70;;
23280;SDS011;11809;56.390;-3.266;2024-03-29T08:51:20;1.80;;;0.52;;
23280;SDS011;11809;56.390;-3.266;2024-03-29T08:53:47;1.58;;;0.85;;
23280;SDS011;11809;56.390;-3.266;2024-03-29T08:56:16;1.40;;;0.63;;
23280;SDS011;11809;56.390;-3.266;2024-03-29T08:58:42;2.65;;;0.60;;
23280;SDS011;11809;56.390;-3.266;2024-03-29T09:01:12;4.15;;;0.80;;
23280;SDS011;11809;56.390;-3.266;2024-03-29T09:03:39;2.60;;;0.60;;
23280;SDS011;11809;56.390;-3.266;2024-03-29T09:06:06;1.70;;;0.60;;
23280;SDS011;11809;56.390;-3.266;2024-03-29T09:08:33;1.05;;;0.60;;
23280;SDS011;11809;56.390;-3.266;2024-03-29T09:11:00;1.05;;;0.50;;
23280;SDS011;11809;56.390;-3.266;2024-03-29T09:13:29;3.20;;;0.60;;
23280;SDS011;11809;56.390;-3.266;2024-03-29T09:15:56;0.90;;;0.68;;
23280;SDS011;11809;56.390;-3.266;2024-03-29T09:18:23;0.63;;;0.60;;
23280;SDS011;11809;56.390;-3.266;2024-03-29T09:20:56;0.98;;;0.57;;
23280;SDS011;11809;56.390;-3.266;2024-03-29T09:23:23;1.33;;;0.60;;
23280;SDS011;11809;56.390;-3.266;2024-03-29T09:25:50;1.75;;;0.60;;
23280;SDS011;11809;56.390;-3.266;2024-03-29T09:28:17;1.80;;;0.50;;
23280;SDS011;11809;56.390;-3.266;2024-03-29T09:30:46;2.25;;;0.60;;
23280;SDS011;11809;56.390;-3.266;2024-03-29T09:33:13;0.90;;;0.43;;
23280;SDS011;11809;56.390;-3.266;2024-03-29T09:35:40;6.45;;;0.82;;
23280;SDS011;11809;56.390;-3.266;2024-03-29T09:38:06;31.67;;;2.70;;
23280;SDS011;11809;56.390;-3.266;2024-03-29T09:40:33;18.20;;;1.10;;
23280;SDS011;11809;56.390;-3.266;2024-03-29T09:43:00;11.95;;;1.45;;
23280;SDS011;11809;56.390;-3.266;2024-03-29T09:45:28;8.00;;;0.88;;
23280;SDS011;11809;56.390;-3.266;2024-03-29T09:48:01;9.47;;;1.77;;
23280;SDS011;11809;56.390;-3.266;2024-03-29T09:50:30;4.10;;;0.70;;
23280;SDS011;11809;56.390;-3.266;2024-03-29T09:52:58;6.68;;;0.93;;
23280;SDS011;11809;56.390;-3.266;2024-03-29T09:55:26;2.78;;;0.75;;
23280;SDS011;11809;56.390;-3.266;2024-03-29T09:57:54;2.92;;;0.60;;
23280;SDS011;11809;56.390;-3.266;2024-03-29T10:00:21;2.92;;;0.60;;
23280;SDS011;11809;56.390;-3.266;2024-03-29T10:02:47;1.30;;;0.63;;
23280;SDS011;11809;56.390;-3.266;2024-03-29T10:05:21;1.90;;;0.52;;
23280;SDS011;11809;56.390;-3.266;2024-03-29T10:07:48;3.80;;;0.60;;
23280;SDS011;11809;56.390;-3.266;2024-03-29T10:10:16;3.25;;;0.40;;
23280;SDS011;11809;56.390;-3.266;2024-03-29T10:12:42;3.75;;;0.52;;
23280;SDS011;11809;56.390;-3.266;2024-03-29T10:15:09;1.50;;;0.60;;
23280;SDS011;11809;56.390;-3.266;2024-03-29T10:17:35;1.15;;;0.50;;
23280;SDS011;11809;56.390;-3.266;2024-03-29T10:20:03;0.88;;;0.50;;
23280;SDS011;11809;56.390;-3.266;2024-03-29T10:22:35;1.92;;;0.60;;
23280;SDS011;11809;56.390;-3.266;2024-03-29T10:25:02;1.75;;;0.68;;
23280;SDS011;11809;56.390;-3.266;2024-03-29T10:27:29;1.58;;;0.40;;
23280;SDS011;11809;56.390;-3.266;2024-03-29T10:29:56;1.30;;;0.63;;
23280;SDS011;11809;56.390;-3.266;2024-03-29T10:32:23;1.85;;;0.50;;
23280;SDS011;11809;56.390;-3.266;2024-03-29T10:34:50;0.65;;;0.40;;
23280;SDS011;11809;56.390;-3.266;2024-03-29T10:37:16;2.58;;;0.40;;
23280;SDS011;11809;56.390;-3.266;2024-03-29T10:39:49;1.35;;;0.40;;
23280;SDS011;11809;56.390;-3.266;2024-03-29T10:42:17;1.35;;;0.45;;
23280;SDS011;11809;56.390;-3.266;2024-03-29T10:44:47;2.80;;;0.70;;
23280;SDS011;11809;56.390;-3.266;2024-03-29T10:47:15;0.47;;;0.30;;
23280;SDS011;11809;56.390;-3.266;2024-03-29T10:49:44;1.00;;;0.50;;
23280;SDS011;11809;56.390;-3.266;2024-03-29T10:52:15;1.27;;;0.50;;
23280;SDS011;11809;56.390;-3.266;2024-03-29T10:54:43;2.28;;;0.80;;
23280;SDS011;11809;56.390;-3.266;2024-03-29T10:57:15;0.57;;;0.40;;
23280;SDS011;11809;56.390;-3.266;2024-03-29T10:59:48;0.52;;;0.40;;
23280;SDS011;11809;56.390;-3.266;2024-03-29T11:02:23;0.70;;;0.47;;
23280;SDS011;11809;56.390;-3.266;2024-03-29T11:05:01;1.25;;;0.65;;
23280;SDS011;11809;56.390;-3.266;2024-03-29T11:07:31;0.50;;;0.50;;
23280;SDS011;11809;56.390;-3.266;2024-03-29T11:10:01;0.47;;;0.47;;
23280;SDS011;11809;56.390;-3.266;2024-03-29T11:12:31;0.60;;;0.50;;
23280;SDS011;11809;56.390;-3.266;2024-03-29T11:15:09;0.57;;;0.47;;
23280;SDS011;11809;56.390;-3.266;2024-03-29T11:17:42;1.48;;;0.50;;
23280;SDS011;11809;56.390;-3.266;2024-03-29T11:20:09;1.52;;;0.60;;
23280;SDS011;11809;56.390;-3.266;2024-03-29T11:22:37;0.73;;;0.55;;
23280;SDS011;11809;56.390;-3.266;2024-03-29T11:25:04;0.50;;;0.50;;
23280;SDS011;11809;56.390;-3.266;2024-03-29T11:27:33;1.10;;;0.40;;
23280;SDS011;11809;56.390;-3.266;2024-03-29T11:30:01;0.47;;;0.40;;
23280;SDS011;11809;56.390;-3.266;2024-03-29T11:32:34;1.10;;;0.50;;
23280;SDS011;11809;56.390;-3.266;2024-03-29T11:35:02;4.40;;;1.33;;
23280;SDS011;11809;56.390;-3.266;2024-03-29T11:37:29;4.43;;;1.02;;
23280;SDS011;11809;56.390;-3.266;2024-03-29T11:39:56;13.88;;;1.48;;
23280;SDS011;11809;56.390;-3.266;2024-03-29T11:42:43;5.75;;;1.02;;
23280;SDS011;11809;56.390;-3.266;2024-03-29T11:45:10;11.18;;;1.20;;
23280;SDS011;11809;56.390;-3.266;2024-03-29T11:47:38;5.93;;;1.13;;
23280;SDS011;11809;56.390;-3.266;2024-03-29T11:50:07;6.88;;;0.77;;
23280;SDS011;11809;56.390;-3.266;2024-03-29T11:52:35;7.47;;;0.95;;
23280;SDS011;11809;56.390;-3.266;2024-03-29T11:55:04;6.95;;;1.58;;
23280;SDS011;11809;56.390;-3.266;2024-03-29T11:57:31;5.00;;;0.80;;
23280;SDS011;11809;56.390;-3.266;2024-03-29T12:00:00;3.70;;;0.68;;
23280;SDS011;11809;56.390;-3.266;2024-03-29T12:02:27;4.88;;;0.60;;
23280;SDS011;11809;56.390;-3.266;2024-03-29T12:04:54;5.85;;;1.00;;
23280;SDS011;11809;56.390;-3.266;2024-03-29T12:07:21;2.13;;;0.80;;
23280;SDS011;11809;56.390;-3.266;2024-03-29T12:09:48;3.28;;;0.60;;
23280;SDS011;11809;56.390;-3.266;2024-03-29T12:12:15;2.42;;;0.85;;
23280;SDS011;11809;56.390;-3.266;2024-03-29T12:14:43;4.38;;;0.85;;
23280;SDS011;11809;56.390;-3.266;2024-03-29T12:17:13;1.83;;;0.80;;
23280;SDS011;11809;56.390;-3.266;2024-03-29T12:19:40;0.60;;;0.60;;
23280;SDS011;11809;56.390;-3.266;2024-03-29T12:22:07;1.52;;;0.60;;
23280;SDS011;11809;56.390;-3.266;2024-03-29T12:24:35;0.85;;;0.57;;
23280;SDS011;11809;56.390;-3.266;2024-03-29T12:27:02;1.67;;;0.60;;
23280;SDS011;11809;56.390;-3.266;2024-03-29T12:29:30;1.05;;;0.50;;
23280;SDS011;11809;56.390;-3.266;2024-03-29T12:31:58;1.63;;;0.50;;
23280;SDS011;11809;56.390;-3.266;2024-03-29T12:34:29;0.45;;;0.45;;
23280;SDS011;11809;56.390;-3.266;2024-03-29T12:36:57;1.33;;;0.57;;
23280;SDS011;11809;56.390;-3.266;2024-03-29T12:39:25;2.05;;;0.70;;
23280;SDS011;11809;56.390;-3.266;2024-03-29T12:41:56;11.47;;;1.03;;
23280;SDS011;11809;56.390;-3.266;2024-03-29T12:44:25;8.18;;;0.90;;
23280;SDS011;11809;56.390;-3.266;2024-03-29T12:46:52;4.25;;;0.70;;
23280;SDS011;11809;56.390;-3.266;2024-03-29T12:49:19;1.77;;;0.40;;
23280;SDS011;11809;56.390;-3.266;2024-03-29T12:51:48;2.97;;;0.50;;
23280;SDS011;11809;56.390;-3.266;2024-03-29T12:54:15;0.40;;;0.40;;
23280;SDS011;11809;56.390;-3.266;2024-03-29T12:56:42;1.75;;;0.50;;
23280;SDS011;11809;56.390;-3.266;2024-03-29T12:59:08;1.48;;;0.50;;
23280;SDS011;11809;56.390;-3.266;2024-03-29T13:01:37;1.85;;;0.43;;
23280;SDS011;11809;56.390;-3.266;2024-03-29T13:04:04;3.78;;;0.47;;
23280;SDS011;11809;56.390;-3.266;2024-03-29T13:06:30;1.15;;;0.50;;
23280;SDS011;11809;56.390;-3.266;2024-03-29T13:08:59;4.07;;;0.43;;
23280;SDS011;11809;56.390;-3.266;2024-03-29T13:11:26;1.55;;;0.60;;
23280;SDS011;11809;56.390;-3.266;2024-03-29T13:13:52;3.95;;;0.60;;
23280;SDS011;11809;56.390;-3.266;2024-03-29T13:16:19;1.17;;;0.40;;
23280;SDS011;11809;56.390;-3.266;2024-03-29T13:18:45;2.00;;;0.40;;
23280;SDS011;11809;56.390;-3.266;2024-03-29T13:21:12;1.33;;;0.30;;
23280;SDS011;11809;56.390;-3.266;2024-03-29T13:23:40;0.57;;;0.50;;
23280;SDS011;11809;56.390;-3.266;2024-03-29T13:26:10;1.20;;;0.30;;
23280;SDS011;11809;56.390;-3.266;2024-03-29T13:28:38;8.73;;;0.65;;
23280;SDS011;11809;56.390;-3.266;2024-03-29T13:31:05;1.83;;;0.43;;
23280;SDS011;11809;56.390;-3.266;2024-03-29T13:33:33;0.75;;;0.30;;
23280;SDS011;11809;56.390;-3.266;2024-03-29T13:36:01;0.60;;;0.20;;
23280;SDS011;11809;56.390;-3.266;2024-03-29T13:38:28;0.28;;;0.20;;
23280;SDS011;11809;56.390;-3.266;2024-03-29T13:40:55;0.30;;;0.30;;
23280;SDS011;11809;56.390;-3.266;2024-03-29T13:43:25;0.50;;;0.20;;
23280;SDS011;11809;56.390;-3.266;2024-03-29T13:45:52;2.22;;;0.50;;
23280;SDS011;11809;56.390;-3.266;2024-03-29T13:48:19;2.40;;;0.20;;
23280;SDS011;11809;56.390;-3.266;2024-03-29T13:50:47;3.25;;;0.38;;
23280;SDS011;11809;56.390;-3.266;2024-03-29T13:53:15;9.07;;;0.40;;
23280;SDS011;11809;56.390;-3.266;2024-03-29T13:55:42;0.20;;;0.20;;
23280;SDS011;11809;56.390;-3.266;2024-03-29T13:58:10;2.45;;;0.28;;
23280;SDS011;11809;56.390;-3.266;2024-03-29T14:00:40;0.93;;;0.30;;
23280;SDS011;11809;56.390;-3.266;2024-03-29T14:03:07;0.45;;;0.20;;
23280;SDS011;11809;56.390;-3.266;2024-03-29T14:05:35;0.75;;;0.30;;
23280;SDS011;11809;56.390;-3.266;2024-03-29T14:08:03;0.30;;;0.30;;
23280;SDS011;11809;56.390;-3.266;2024-03-29T14:10:31;1.45;;;0.40;;
23280;SDS011;11809;56.390;-3.266;2024-03-29T14:12:59;4.68;;;0.63;;
23280;SDS011;11809;56.390;-3.266;2024-03-29T14:15:27;18.67;;;1.90;;
23280;SDS011;11809;56.390;-3.266;2024-03-29T14:17:57;12.05;;;1.38;;
23280;SDS011;11809;56.390;-3.266;2024-03-29T14:20:25;9.95;;;1.80;;
23280;SDS011;11809;56.390;-3.266;2024-03-29T14:22:51;27.23;;;3.03;;
23280;SDS011;11809;56.390;-3.266;2024-03-29T14:25:19;23.13;;;2.40;;
23280;SDS011;11809;56.390;-3.266;2024-03-29T14:27:46;14.60;;;2.53;;
23280;SDS011;11809;56.390;-3.266;2024-03-29T14:30:13;9.43;;;1.25;;
23280;SDS011;11809;56.390;-3.266;2024-03-29T14:32:44;14.88;;;1.70;;
23280;SDS011;11809;56.390;-3.266;2024-03-29T14:35:15;9.25;;;1.25;;
23280;SDS011;11809;56.390;-3.266;2024-03-29T14:37:42;10.77;;;1.85;;
23280;SDS011;11809;56.390;-3.266;2024-03-29T14:40:11;14.43;;;2.25;;
23280;SDS011;11809;56.390;-3.266;2024-03-29T14:42:40;23.02;;;2.60;;